createdAt,value
2022-09-23T00:04:42.892Z,10.65
2022-09-23T00:15:08.820Z,10.42
2022-09-23T00:20:12.696Z,10.53
2022-09-23T00:25:16.796Z,10.55
2022-09-23T00:30:19.642Z,10.36
2022-09-23T00:35:22.512Z,10.39
2022-09-23T00:40:26.637Z,10.45
2022-09-23T00:45:30.924Z,10.29
2022-09-23T00:50:38.700Z,10.24
2022-09-23T00:55:47.582Z,10.14
2022-09-23T01:00:50.701Z,10.09
2022-09-23T01:05:53.973Z,10.13
2022-09-23T01:11:08.797Z,10.12
2022-09-23T01:16:19.514Z,10.05
2022-09-23T01:21:38.628Z,10.05
2022-09-23T01:26:54.212Z,10.24
2022-09-23T01:32:04.343Z,10.41
2022-09-23T01:37:12.621Z,10.50
2022-09-23T01:42:18.036Z,10.37
2022-09-23T01:47:26.224Z,10.27
2022-09-23T01:52:33.498Z,10.25
2022-09-23T01:57:41.447Z,10.23
2022-09-23T02:02:50.808Z,10.14
2022-09-23T02:07:59.846Z,9.96
2022-09-23T02:13:07.321Z,9.81
2022-09-23T02:18:16.141Z,9.85
2022-09-23T02:23:24.356Z,9.80
2022-09-23T02:28:34.765Z,9.82
2022-09-23T02:33:44.482Z,9.84
2022-09-23T02:38:54.402Z,9.86
2022-09-23T02:44:03.540Z,10.00
2022-09-23T02:49:12.719Z,10.03
2022-09-23T02:54:19.572Z,9.93
2022-09-23T02:59:23.975Z,10.00
2022-09-23T03:04:38.368Z,9.94
2022-09-23T03:09:46.784Z,9.92
2022-09-23T03:14:54.099Z,9.80
2022-09-23T03:20:03.002Z,9.92
2022-09-23T03:25:10.491Z,9.85
2022-09-23T03:30:14.685Z,9.82
2022-09-23T03:35:19.213Z,9.93
2022-09-23T03:40:27.143Z,9.93
2022-09-23T03:45:34.137Z,9.89
2022-09-23T03:50:39.267Z,9.77
2022-09-23T03:55:42.165Z,9.84
2022-09-23T04:00:46.751Z,9.78
2022-09-23T04:05:51.645Z,9.70
2022-09-23T04:10:59.666Z,9.66
2022-09-23T04:16:03.203Z,9.46
2022-09-23T04:21:07.607Z,9.49
2022-09-23T04:26:10.923Z,9.53
2022-09-23T04:31:13.687Z,9.57
2022-09-23T04:36:18.058Z,9.51
2022-09-23T04:41:21.084Z,9.60
2022-09-23T04:46:24.192Z,9.62
2022-09-23T04:51:29.421Z,9.65
2022-09-23T04:56:33.573Z,9.76
2022-09-23T05:01:38.477Z,9.78
2022-09-23T05:06:44.980Z,9.85
2022-09-23T05:11:48.169Z,9.92
2022-09-23T05:16:50.945Z,9.86
2022-09-23T05:21:55.412Z,9.94
2022-09-23T05:26:58.176Z,10.01
2022-09-23T05:32:01.517Z,10.12
2022-09-23T05:37:08.237Z,10.19
2022-09-23T05:42:12.329Z,10.26
2022-09-23T05:47:15.436Z,10.39
2022-09-23T05:52:19.948Z,10.50
2022-09-23T05:57:22.766Z,10.55
2022-09-23T06:02:25.599Z,10.62
2022-09-23T06:07:31.549Z,10.63
2022-09-23T06:12:35.809Z,10.76
2022-09-23T06:17:38.638Z,10.74
2022-09-23T06:22:42.808Z,10.73
2022-09-23T06:27:45.771Z,10.76
2022-09-23T06:32:52.128Z,10.93
2022-09-23T06:37:57.414Z,10.99
2022-09-23T06:43:00.819Z,10.99
2022-09-23T06:48:04.822Z,11.14
2022-09-23T06:53:09.138Z,11.58
2022-09-23T06:58:12.662Z,12.12
2022-09-23T07:03:15.588Z,13.36
2022-09-23T07:08:20.104Z,14.59
2022-09-23T07:13:23.568Z,15.78
2022-09-23T07:18:27.803Z,16.60
2022-09-23T07:23:33.475Z,17.06
2022-09-23T07:28:37.044Z,18.21
2022-09-23T07:33:44.038Z,17.07
2022-09-23T07:38:48.417Z,16.40
2022-09-23T07:43:52.663Z,15.36
2022-09-23T07:48:55.789Z,15.05
2022-09-23T07:54:00.236Z,14.51
2022-09-23T07:59:04.059Z,14.37
2022-09-23T08:04:10.165Z,14.72
2022-09-23T08:09:14.836Z,14.72
2022-09-23T08:14:19.061Z,15.05
2022-09-23T08:19:21.920Z,15.09
2022-09-23T08:24:26.521Z,14.91
2022-09-23T08:29:29.647Z,14.96
2022-09-23T08:34:32.381Z,14.85
2022-09-23T08:39:36.467Z,14.81
2022-09-23T08:44:48.045Z,14.63
2022-09-23T08:50:01.597Z,14.90
2022-09-23T08:55:12.236Z,15.06
2022-09-23T09:00:21.572Z,15.29
2022-09-23T09:05:27.800Z,15.51
2022-09-23T09:10:36.598Z,15.70
2022-09-23T09:15:48.509Z,15.81
2022-09-23T09:20:58.943Z,15.98
2022-09-23T09:26:04.578Z,16.00
2022-09-23T09:31:24.157Z,16.27
2022-09-23T09:36:37.228Z,16.41
2022-09-23T09:41:45.404Z,16.53
2022-09-23T09:46:54.488Z,16.75
2022-09-23T09:52:15.916Z,16.93
2022-09-23T09:57:33.528Z,17.18
2022-09-23T10:02:40.761Z,17.70
2022-09-23T10:07:43.576Z,17.79
2022-09-23T10:12:49.069Z,17.98
2022-09-23T10:17:52.408Z,18.19
2022-09-23T10:22:56.637Z,18.14
2022-09-23T10:28:23.521Z,18.01
2022-09-23T10:33:28.203Z,18.34
2022-09-23T10:38:31.246Z,18.69
2022-09-23T10:44:02.198Z,18.97
2022-09-23T10:49:21.117Z,19.02
2022-09-23T10:54:37.202Z,19.31
2022-09-23T10:59:57.715Z,19.62
2022-09-23T11:05:32.605Z,19.76
2022-09-23T11:10:56.689Z,19.87
2022-09-23T11:16:09.009Z,20.18
2022-09-23T11:21:28.929Z,20.26
2022-09-23T11:26:42.952Z,20.39
2022-09-23T11:31:59.782Z,20.25
2022-09-23T11:37:07.282Z,20.38
2022-09-23T11:42:18.293Z,20.08
2022-09-23T11:47:26.951Z,20.54
2022-09-23T11:52:34.672Z,20.31
2022-09-23T11:57:49.735Z,20.15
2022-09-23T12:03:06.550Z,19.93
2022-09-23T12:08:20.628Z,20.21
2022-09-23T12:13:31.515Z,20.24
2022-09-23T12:18:49.594Z,19.73
2022-09-23T12:24:03.181Z,19.93
2022-09-23T12:29:08.237Z,20.39
2022-09-23T12:34:24.135Z,20.16
2022-09-23T12:39:31.686Z,20.51
2022-09-23T12:44:40.680Z,20.57
2022-09-23T12:49:45.258Z,20.60
2022-09-23T12:54:49.831Z,20.38
2022-09-23T12:59:58.971Z,20.35
2022-09-23T13:05:35.096Z,20.25
2022-09-23T13:10:45.030Z,20.35
2022-09-23T13:15:48.312Z,20.65
2022-09-23T13:20:53.957Z,20.40
2022-09-23T13:26:00.417Z,20.41
2022-09-23T13:31:06.219Z,20.39
2022-09-23T13:36:15.279Z,20.29
2022-09-23T13:41:20.677Z,20.34
2022-09-23T13:46:26.855Z,20.53
2022-09-23T13:51:35.093Z,20.30
2022-09-23T13:56:37.999Z,20.13
2022-09-23T14:01:40.897Z,19.99
2022-09-23T14:06:45.229Z,19.67
2022-09-23T14:11:48.223Z,20.21
2022-09-23T14:16:53.355Z,19.99
2022-09-23T14:21:58.992Z,19.80
2022-09-23T14:27:10.489Z,19.76
2022-09-23T14:32:17.280Z,19.55
2022-09-23T14:37:46.569Z,19.43
2022-09-23T14:42:52.667Z,19.41
2022-09-23T14:48:00.153Z,19.40
2022-09-23T14:53:04.290Z,19.31
2022-09-23T14:58:17.846Z,19.39
2022-09-23T15:03:22.072Z,19.37
2022-09-23T15:08:28.770Z,19.28
2022-09-23T15:13:34.291Z,18.98
2022-09-23T15:18:38.751Z,18.79
2022-09-23T15:23:48.897Z,18.87
2022-09-23T15:28:54.067Z,18.67
2022-09-23T15:33:57.169Z,18.74
2022-09-23T15:39:06.217Z,18.60
2022-09-23T15:44:13.778Z,18.31
2022-09-23T15:49:23.386Z,18.46
2022-09-23T15:54:27.794Z,18.40
2022-09-23T15:59:31.633Z,18.41
2022-09-23T16:04:35.974Z,18.24
2022-09-23T16:09:40.494Z,17.93
2022-09-23T16:14:43.429Z,18.00
2022-09-23T16:19:46.299Z,17.99
2022-09-23T16:24:50.473Z,17.80
2022-09-23T16:29:53.597Z,17.64
2022-09-23T16:34:58.514Z,17.70
2022-09-23T16:40:03.795Z,17.56
2022-09-23T16:45:07.721Z,17.38
2022-09-23T16:50:11.170Z,17.20
2022-09-23T16:55:17.347Z,17.04
2022-09-23T17:00:38.823Z,17.03
2022-09-23T17:05:42.954Z,16.82
2022-09-23T17:10:58.623Z,16.93
2022-09-23T17:16:02.335Z,16.77
2022-09-23T17:21:09.067Z,16.72
2022-09-23T17:26:13.795Z,16.73
2022-09-23T17:31:16.745Z,16.68
2022-09-23T17:36:20.693Z,16.47
2022-09-23T17:41:25.030Z,16.46
2022-09-23T17:46:31.029Z,16.36
2022-09-23T17:51:35.772Z,16.41
2022-09-23T17:56:42.843Z,16.35
2022-09-23T18:01:46.255Z,16.34
2022-09-23T18:06:49.444Z,16.26
2022-09-23T18:11:54.170Z,16.29
2022-09-23T18:16:57.611Z,16.33
2022-09-23T18:22:01.945Z,16.35
2022-09-23T18:27:07.377Z,16.41
2022-09-23T18:32:13.976Z,16.30
2022-09-23T18:37:17.290Z,16.19
2022-09-23T18:42:21.617Z,16.31
2022-09-23T18:47:41.581Z,16.05
2022-09-23T18:52:44.447Z,16.10
2022-09-23T18:57:49.069Z,15.90
2022-09-23T19:02:52.825Z,15.91
2022-09-23T19:07:55.608Z,15.90
2022-09-23T19:13:00.622Z,15.78
2022-09-23T19:18:03.472Z,15.75
2022-09-23T19:23:06.870Z,15.72
2022-09-23T19:28:11.066Z,15.71
2022-09-23T19:33:13.950Z,15.71
2022-09-23T19:38:17.626Z,15.74
2022-09-23T19:43:21.997Z,15.72
2022-09-23T19:48:25.067Z,15.51
2022-09-23T19:53:28.368Z,15.40
2022-09-23T19:58:33.087Z,15.32
2022-09-23T20:03:35.881Z,15.33
2022-09-23T20:08:39.242Z,15.30
2022-09-23T20:13:47.150Z,15.38
2022-09-23T20:18:53.687Z,15.41
2022-09-23T20:23:56.919Z,15.36
2022-09-23T20:29:01.540Z,15.34
2022-09-23T20:34:05.892Z,15.36
2022-09-23T20:39:10.028Z,15.36
2022-09-23T20:44:14.216Z,15.49
2022-09-23T20:49:17.995Z,15.52
2022-09-23T20:54:21.069Z,15.44
2022-09-23T20:59:27.169Z,15.24
2022-09-23T21:04:31.388Z,15.05
2022-09-23T21:09:34.158Z,15.02
2022-09-23T21:14:39.416Z,15.13
2022-09-23T21:19:42.214Z,15.09
2022-09-23T21:25:25.954Z,15.03
2022-09-23T21:30:10.933Z,14.98
2022-09-23T21:35:13.873Z,14.96
2022-09-23T21:40:34.561Z,14.84
2022-09-23T21:45:39.044Z,14.81
2022-09-23T21:50:42.220Z,14.71
2022-09-23T21:55:48.788Z,14.65
2022-09-23T22:00:52.949Z,14.63
2022-09-23T22:06:04.160Z,14.50
2022-09-23T22:11:08.886Z,14.39
2022-09-23T22:16:16.648Z,14.38
2022-09-23T22:21:20.531Z,14.40
2022-09-23T22:26:23.802Z,14.37
2022-09-23T22:31:45.459Z,14.31
2022-09-23T22:36:48.310Z,14.28
2022-09-23T22:41:51.350Z,14.19
2022-09-23T22:46:55.490Z,14.14
2022-09-23T22:51:59.563Z,14.19
2022-09-23T22:57:04.335Z,14.17
2022-09-23T23:02:08.624Z,14.14
2022-09-23T23:07:11.926Z,14.14
2022-09-23T23:12:14.717Z,14.10
2022-09-23T23:17:18.907Z,14.19
2022-09-23T23:22:21.718Z,14.23
2022-09-23T23:27:24.488Z,14.27
2022-09-23T23:32:28.551Z,14.29
2022-09-23T23:37:31.278Z,14.21
2022-09-23T23:42:34.617Z,14.06
2022-09-23T23:47:39.920Z,13.97
2022-09-23T23:52:42.630Z,13.92
2022-09-23T23:57:45.354Z,13.92
